Doss, Missouri
Current Conditions -  °F | °C
As of 2:58 AM on Friday 31 Oct 2014 (Local Time) from KTBN Reporting Station
Clear Clear  
Wind Chill: 42°   Ceiling: Unl
Heat Index: 46°   Visibility: 10mi
Dew Point: 44°   Wind: 7mph
Humidity: 93%   Direction: 320°NW
Pressure: 30.1"   Gusts: NA
Location:  37.5023°N, 91.4546°W
Report Text: KTBN 310758Z AUTO 32006KT 10SM CLR 08/07 A3010 RMK AO2 SLP197 T00750065
Loading
Personal Weather Stations






























Interactive Weather Map
Tropical Storm Tracking
New forecast layout! Learn more

10-Day Weather Forecast

Advertisements
Track Severe Weather on mobile